sensor_id;sensor_type;location;lat;lon;timestamp;pressure;altitude;pressure_sealevel;temperature;humidity
8575;BME280;4325;42.520;27.448;2023-04-08T00:02:04;101509.16;;;9.69;100.00
8575;BME280;4325;42.520;27.448;2023-04-08T00:04:31;101507.41;;;9.63;100.00
8575;BME280;4325;42.520;27.448;2023-04-08T00:06:58;101513.47;;;9.65;100.00
8575;BME280;4325;42.520;27.448;2023-04-08T00:09:25;101518.69;;;9.66;100.00
8575;BME280;4325;42.520;27.448;2023-04-08T00:11:52;101521.75;;;9.70;100.00
8575;BME280;4325;42.520;27.448;2023-04-08T00:14:20;101517.88;;;9.66;100.00
8575;BME280;4325;42.520;27.448;2023-04-08T00:16:47;101525.25;;;9.65;100.00
8575;BME280;4325;42.520;27.448;2023-04-08T00:19:13;101523.72;;;9.58;100.00
8575;BME280;4325;42.520;27.448;2023-04-08T00:21:40;101515.91;;;9.50;100.00
8575;BME280;4325;42.520;27.448;2023-04-08T00:24:07;101515.59;;;9.46;100.00
8575;BME280;4325;42.520;27.448;2023-04-08T00:26:35;101513.59;;;9.42;100.00
8575;BME280;4325;42.520;27.448;2023-04-08T00:29:02;101515.72;;;9.40;100.00
8575;BME280;4325;42.520;27.448;2023-04-08T00:31:30;101510.78;;;9.37;100.00
8575;BME280;4325;42.520;27.448;2023-04-08T00:33:57;101519.34;;;9.28;100.00
8575;BME280;4325;42.520;27.448;2023-04-08T00:36:24;101517.84;;;9.21;100.00
8575;BME280;4325;42.520;27.448;2023-04-08T00:38:52;101513.00;;;9.11;100.00
8575;BME280;4325;42.520;27.448;2023-04-08T00:41:18;101510.16;;;9.06;100.00
8575;BME280;4325;42.520;27.448;2023-04-08T00:43:45;101505.59;;;8.95;100.00
8575;BME280;4325;42.520;27.448;2023-04-08T00:46:12;101505.59;;;8.84;100.00
8575;BME280;4325;42.520;27.448;2023-04-08T00:48:40;101510.50;;;8.70;100.00
8575;BME280;4325;42.520;27.448;2023-04-08T00:51:07;101495.22;;;8.57;100.00
8575;BME280;4325;42.520;27.448;2023-04-08T00:53:35;101499.59;;;8.47;100.00
8575;BME280;4325;42.520;27.448;2023-04-08T00:56:02;101496.69;;;8.37;100.00
8575;BME280;4325;42.520;27.448;2023-04-08T00:58:29;101495.97;;;8.30;100.00
8575;BME280;4325;42.520;27.448;2023-04-08T01:00:59;101506.13;;;8.23;100.00
8575;BME280;4325;42.520;27.448;2023-04-08T01:03:40;101497.22;;;8.16;100.00
8575;BME280;4325;42.520;27.448;2023-04-08T01:06:17;101502.22;;;8.07;100.00
8575;BME280;4325;42.520;27.448;2023-04-08T01:08:49;101502.94;;;8.03;100.00
8575;BME280;4325;42.520;27.448;2023-04-08T01:11:17;101485.84;;;7.95;100.00
8575;BME280;4325;42.520;27.448;2023-04-08T01:13:47;101489.63;;;7.94;100.00
8575;BME280;4325;42.520;27.448;2023-04-08T01:16:15;101486.78;;;7.89;100.00
8575;BME280;4325;42.520;27.448;2023-04-08T01:18:43;101478.94;;;7.81;100.00
8575;BME280;4325;42.520;27.448;2023-04-08T01:21:14;101483.69;;;7.74;100.00
8575;BME280;4325;42.520;27.448;2023-04-08T01:23:51;101478.47;;;7.73;100.00
8575;BME280;4325;42.520;27.448;2023-04-08T01:26:24;101480.81;;;7.69;100.00
8575;BME280;4325;42.520;27.448;2023-04-08T01:28:52;101487.38;;;7.68;100.00
8575;BME280;4325;42.520;27.448;2023-04-08T01:31:21;101482.25;;;7.60;100.00
8575;BME280;4325;42.520;27.448;2023-04-08T01:33:50;101493.00;;;7.55;100.00
8575;BME280;4325;42.520;27.448;2023-04-08T01:36:19;101484.09;;;7.48;100.00
8575;BME280;4325;42.520;27.448;2023-04-08T01:38:47;101491.09;;;7.44;100.00
8575;BME280;4325;42.520;27.448;2023-04-08T01:41:16;101487.03;;;7.35;100.00
8575;BME280;4325;42.520;27.448;2023-04-08T01:43:45;101500.28;;;7.31;100.00
8575;BME280;4325;42.520;27.448;2023-04-08T01:46:14;101504.44;;;7.34;100.00
8575;BME280;4325;42.520;27.448;2023-04-08T01:48:41;101502.63;;;7.28;100.00
8575;BME280;4325;42.520;27.448;2023-04-08T01:51:10;101506.28;;;7.22;100.00
8575;BME280;4325;42.520;27.448;2023-04-08T01:53:38;101508.03;;;7.16;100.00
8575;BME280;4325;42.520;27.448;2023-04-08T01:56:08;101504.34;;;7.11;100.00
8575;BME280;4325;42.520;27.448;2023-04-08T01:58:42;101504.81;;;7.08;100.00
8575;BME280;4325;42.520;27.448;2023-04-08T02:01:17;101504.09;;;7.01;100.00
8575;BME280;4325;42.520;27.448;2023-04-08T02:03:46;101514.59;;;6.97;100.00
8575;BME280;4325;42.520;27.448;2023-04-08T02:06:16;101516.91;;;6.94;100.00
8575;BME280;4325;42.520;27.448;2023-04-08T02:08:43;101509.22;;;6.91;100.00
8575;BME280;4325;42.520;27.448;2023-04-08T02:11:10;101517.41;;;6.91;100.00
8575;BME280;4325;42.520;27.448;2023-04-08T02:13:37;101515.28;;;6.93;100.00
8575;BME280;4325;42.520;27.448;2023-04-08T02:16:09;101509.69;;;6.88;100.00
8575;BME280;4325;42.520;27.448;2023-04-08T02:18:42;101504.59;;;6.91;100.00
8575;BME280;4325;42.520;27.448;2023-04-08T02:21:13;101502.13;;;6.90;100.00
8575;BME280;4325;42.520;27.448;2023-04-08T02:23:45;101508.25;;;6.85;100.00
8575;BME280;4325;42.520;27.448;2023-04-08T02:26:16;101504.47;;;6.86;100.00
8575;BME280;4325;42.520;27.448;2023-04-08T02:28:43;101509.28;;;6.84;100.00
8575;BME280;4325;42.520;27.448;2023-04-08T02:31:11;101510.59;;;6.82;100.00
8575;BME280;4325;42.520;27.448;2023-04-08T02:33:41;101514.13;;;6.82;100.00
8575;BME280;4325;42.520;27.448;2023-04-08T02:36:10;101513.31;;;6.82;100.00
8575;BME280;4325;42.520;27.448;2023-04-08T02:38:37;101514.75;;;6.84;100.00
8575;BME280;4325;42.520;27.448;2023-04-08T02:41:05;101507.41;;;6.85;100.00
8575;BME280;4325;42.520;27.448;2023-04-08T02:43:31;101515.44;;;6.80;100.00
8575;BME280;4325;42.520;27.448;2023-04-08T02:46:00;101518.53;;;6.83;100.00
8575;BME280;4325;42.520;27.448;2023-04-08T02:48:28;101523.13;;;6.83;100.00
8575;BME280;4325;42.520;27.448;2023-04-08T02:50:56;101526.47;;;6.85;100.00
8575;BME280;4325;42.520;27.448;2023-04-08T02:53:23;101530.88;;;6.86;100.00
8575;BME280;4325;42.520;27.448;2023-04-08T02:55:51;101526.47;;;6.85;100.00
8575;BME280;4325;42.520;27.448;2023-04-08T02:58:18;101531.91;;;6.85;100.00
8575;BME280;4325;42.520;27.448;2023-04-08T03:00:45;101531.47;;;6.88;100.00
8575;BME280;4325;42.520;27.448;2023-04-08T03:03:11;101537.00;;;6.81;100.00
8575;BME280;4325;42.520;27.448;2023-04-08T03:05:38;101529.19;;;6.85;100.00
8575;BME280;4325;42.520;27.448;2023-04-08T03:08:07;101526.47;;;6.85;100.00
8575;BME280;4325;42.520;27.448;2023-04-08T03:10:34;101534.88;;;6.83;100.00
8575;BME280;4325;42.520;27.448;2023-04-08T03:13:00;101539.91;;;6.80;100.00
8575;BME280;4325;42.520;27.448;2023-04-08T03:15:27;101546.28;;;6.74;100.00
8575;BME280;4325;42.520;27.448;2023-04-08T03:17:54;101545.53;;;6.67;100.00
8575;BME280;4325;42.520;27.448;2023-04-08T03:20:21;101549.75;;;6.62;100.00
8575;BME280;4325;42.520;27.448;2023-04-08T03:22:48;101550.66;;;6.56;100.00
8575;BME280;4325;42.520;27.448;2023-04-08T03:25:16;101550.06;;;6.54;100.00
8575;BME280;4325;42.520;27.448;2023-04-08T03:27:43;101549.91;;;6.49;100.00
8575;BME280;4325;42.520;27.448;2023-04-08T03:30:10;101557.44;;;6.47;100.00
8575;BME280;4325;42.520;27.448;2023-04-08T03:32:37;101558.34;;;6.41;100.00
8575;BME280;4325;42.520;27.448;2023-04-08T03:35:05;101562.09;;;6.40;100.00
8575;BME280;4325;42.520;27.448;2023-04-08T03:37:32;101566.94;;;6.38;100.00
8575;BME280;4325;42.520;27.448;2023-04-08T03:39:59;101571.34;;;6.39;100.00
8575;BME280;4325;42.520;27.448;2023-04-08T03:42:27;101567.25;;;6.30;100.00
8575;BME280;4325;42.520;27.448;2023-04-08T03:44:54;101573.91;;;6.34;100.00
8575;BME280;4325;42.520;27.448;2023-04-08T03:47:21;101574.94;;;6.33;100.00
8575;BME280;4325;42.520;27.448;2023-04-08T03:49:48;101577.06;;;6.31;100.00
8575;BME280;4325;42.520;27.448;2023-04-08T03:52:15;101573.13;;;6.27;100.00
8575;BME280;4325;42.520;27.448;2023-04-08T03:54:42;101568.28;;;6.29;100.00
8575;BME280;4325;42.520;27.448;2023-04-08T03:57:09;101564.38;;;6.25;100.00
8575;BME280;4325;42.520;27.448;2023-04-08T03:59:37;101574.78;;;6.28;100.00
8575;BME280;4325;42.520;27.448;2023-04-08T04:02:05;101571.63;;;6.31;100.00
8575;BME280;4325;42.520;27.448;2023-04-08T04:04:32;101572.63;;;6.37;100.00
8575;BME280;4325;42.520;27.448;2023-04-08T04:07:01;101568.19;;;6.42;100.00
8575;BME280;4325;42.520;27.448;2023-04-08T04:09:28;101577.41;;;6.59;100.00
8575;BME280;4325;42.520;27.448;2023-04-08T04:11:55;101581.50;;;6.69;100.00
8575;BME280;4325;42.520;27.448;2023-04-08T04:14:22;101582.03;;;6.77;100.00
8575;BME280;4325;42.520;27.448;2023-04-08T04:16:50;101592.53;;;6.92;100.00
8575;BME280;4325;42.520;27.448;2023-04-08T04:19:17;101588.59;;;7.06;100.00
8575;BME280;4325;42.520;27.448;2023-04-08T04:21:43;101591.63;;;7.16;100.00
8575;BME280;4325;42.520;27.448;2023-04-08T04:24:10;101590.50;;;7.23;100.00
8575;BME280;4325;42.520;27.448;2023-04-08T04:26:39;101597.41;;;7.38;100.00
8575;BME280;4325;42.520;27.448;2023-04-08T04:29:06;101590.38;;;7.48;100.00
8575;BME280;4325;42.520;27.448;2023-04-08T04:31:33;101588.63;;;7.54;100.00
8575;BME280;4325;42.520;27.448;2023-04-08T04:34:01;101586.63;;;7.61;100.00
8575;BME280;4325;42.520;27.448;2023-04-08T04:36:28;101584.41;;;7.69;100.00
8575;BME280;4325;42.520;27.448;2023-04-08T04:38:55;101589.28;;;7.79;100.00
8575;BME280;4325;42.520;27.448;2023-04-08T04:41:22;101590.06;;;7.86;100.00
8575;BME280;4325;42.520;27.448;2023-04-08T04:43:49;101590.28;;;7.96;100.00
8575;BME280;4325;42.520;27.448;2023-04-08T04:46:16;101583.66;;;8.04;100.00
8575;BME280;4325;42.520;27.448;2023-04-08T04:48:43;101590.81;;;8.16;100.00
8575;BME280;4325;42.520;27.448;2023-04-08T04:51:11;101585.50;;;8.33;100.00
8575;BME280;4325;42.520;27.448;2023-04-08T04:53:38;101595.75;;;8.49;100.00
8575;BME280;4325;42.520;27.448;2023-04-08T04:56:05;101591.69;;;8.63;100.00
8575;BME280;4325;42.520;27.448;2023-04-08T04:58:32;101603.44;;;8.75;100.00
8575;BME280;4325;42.520;27.448;2023-04-08T05:00:59;101606.88;;;8.82;100.00
8575;BME280;4325;42.520;27.448;2023-04-08T05:03:25;101606.28;;;8.92;100.00
8575;BME280;4325;42.520;27.448;2023-04-08T05:05:52;101619.09;;;9.03;100.00
8575;BME280;4325;42.520;27.448;2023-04-08T05:08:21;101611.34;;;9.11;100.00
8575;BME280;4325;42.520;27.448;2023-04-08T05:10:48;101618.09;;;9.20;100.00
8575;BME280;4325;42.520;27.448;2023-04-08T05:13:16;101617.50;;;9.18;100.00
8575;BME280;4325;42.520;27.448;2023-04-08T05:15:43;101622.84;;;9.25;100.00
8575;BME280;4325;42.520;27.448;2023-04-08T05:18:10;101620.34;;;9.23;100.00
8575;BME280;4325;42.520;27.448;2023-04-08T05:20:37;101622.63;;;9.26;100.00
8575;BME280;4325;42.520;27.448;2023-04-08T05:23:05;101625.56;;;9.37;100.00
8575;BME280;4325;42.520;27.448;2023-04-08T05:25:33;101627.63;;;9.58;100.00
8575;BME280;4325;42.520;27.448;2023-04-08T05:28:00;101628.69;;;9.57;100.00
8575;BME280;4325;42.520;27.448;2023-04-08T05:30:27;101626.47;;;9.54;100.00
8575;BME280;4325;42.520;27.448;2023-04-08T05:32:54;101639.50;;;9.52;100.00
8575;BME280;4325;42.520;27.448;2023-04-08T05:35:21;101632.63;;;9.49;100.00
8575;BME280;4325;42.520;27.448;2023-04-08T05:37:47;101638.13;;;9.38;100.00
8575;BME280;4325;42.520;27.448;2023-04-08T05:40:14;101628.50;;;9.35;100.00
8575;BME280;4325;42.520;27.448;2023-04-08T05:42:42;101641.25;;;9.29;100.00
8575;BME280;4325;42.520;27.448;2023-04-08T05:45:10;101639.34;;;9.42;100.00
8575;BME280;4325;42.520;27.448;2023-04-08T05:47:36;101637.72;;;9.57;100.00
8575;BME280;4325;42.520;27.448;2023-04-08T05:50:04;101632.59;;;9.61;100.00
8575;BME280;4325;42.520;27.448;2023-04-08T05:52:31;101637.38;;;9.54;100.00
8575;BME280;4325;42.520;27.448;2023-04-08T05:54:58;101633.34;;;9.45;100.00
8575;BME280;4325;42.520;27.448;2023-04-08T05:57:25;101632.59;;;9.61;100.00
8575;BME280;4325;42.520;27.448;2023-04-08T05:59:53;101636.97;;;9.73;100.00
8575;BME280;4325;42.520;27.448;2023-04-08T06:02:20;101637.19;;;10.00;100.00
8575;BME280;4325;42.520;27.448;2023-04-08T06:04:47;101634.25;;;10.18;100.00
8575;BME280;4325;42.520;27.448;2023-04-08T06:07:13;101646.22;;;10.45;100.00
8575;BME280;4325;42.520;27.448;2023-04-08T06:09:40;101644.56;;;10.78;100.00
8575;BME280;4325;42.520;27.448;2023-04-08T06:12:07;101649.88;;;11.06;100.00
8575;BME280;4325;42.520;27.448;2023-04-08T06:14:34;101651.44;;;11.40;100.00
8575;BME280;4325;42.520;27.448;2023-04-08T06:17:03;101647.56;;;11.79;100.00
8575;BME280;4325;42.520;27.448;2023-04-08T06:19:30;101654.00;;;12.17;100.00
8575;BME280;4325;42.520;27.448;2023-04-08T06:21:56;101651.94;;;12.29;100.00
8575;BME280;4325;42.520;27.448;2023-04-08T06:24:24;101655.75;;;12.28;100.00
8575;BME280;4325;42.520;27.448;2023-04-08T06:26:51;101656.50;;;12.50;100.00
8575;BME280;4325;42.520;27.448;2023-04-08T06:29:19;101650.63;;;12.73;100.00
8575;BME280;4325;42.520;27.448;2023-04-08T06:31:46;101651.81;;;13.24;100.00
8575;BME280;4325;42.520;27.448;2023-04-08T06:34:14;101657.25;;;13.71;98.36
8575;BME280;4325;42.520;27.448;2023-04-08T06:36:42;101650.81;;;14.37;95.14
8575;BME280;4325;42.520;27.448;2023-04-08T06:39:09;101656.25;;;15.08;90.59
8575;BME280;4325;42.520;27.448;2023-04-08T06:41:37;101652.00;;;15.51;86.33
8575;BME280;4325;42.520;27.448;2023-04-08T06:44:04;101645.06;;;15.63;83.81
8575;BME280;4325;42.520;27.448;2023-04-08T06:46:30;101646.22;;;15.42;82.01
8575;BME280;4325;42.520;27.448;2023-04-08T06:48:57;101638.03;;;15.17;84.75
8575;BME280;4325;42.520;27.448;2023-04-08T06:51:26;101634.84;;;14.65;85.51
8575;BME280;4325;42.520;27.448;2023-04-08T06:53:53;101627.06;;;14.21;89.79
8575;BME280;4325;42.520;27.448;2023-04-08T06:56:20;101623.75;;;13.99;91.94
8575;BME280;4325;42.520;27.448;2023-04-08T06:58:47;101632.53;;;13.86;93.00
8575;BME280;4325;42.520;27.448;2023-04-08T07:01:14;101623.66;;;13.64;94.40
8575;BME280;4325;42.520;27.448;2023-04-08T07:03:42;101622.78;;;13.58;95.85
8575;BME280;4325;42.520;27.448;2023-04-08T07:06:09;101611.50;;;13.50;96.10
8575;BME280;4325;42.520;27.448;2023-04-08T07:08:37;101625.00;;;13.56;96.66
8575;BME280;4325;42.520;27.448;2023-04-08T07:11:04;101637.13;;;13.65;96.42
8575;BME280;4325;42.520;27.448;2023-04-08T07:13:31;101635.44;;;13.49;97.35
8575;BME280;4325;42.520;27.448;2023-04-08T07:15:58;101650.09;;;13.65;97.68
8575;BME280;4325;42.520;27.448;2023-04-08T07:18:24;101655.50;;;13.45;98.32
8575;BME280;4325;42.520;27.448;2023-04-08T07:20:52;101650.34;;;13.68;98.66
8575;BME280;4325;42.520;27.448;2023-04-08T07:23:19;101655.16;;;14.13;96.56
8575;BME280;4325;42.520;27.448;2023-04-08T07:25:48;101651.38;;;14.70;91.51
8575;BME280;4325;42.520;27.448;2023-04-08T07:28:14;101664.25;;;15.09;88.11
8575;BME280;4325;42.520;27.448;2023-04-08T07:30:41;101673.28;;;15.40;87.54
8575;BME280;4325;42.520;27.448;2023-04-08T07:33:08;101670.97;;;15.72;86.73
8575;BME280;4325;42.520;27.448;2023-04-08T07:35:35;101669.16;;;16.02;81.99
8575;BME280;4325;42.520;27.448;2023-04-08T07:38:02;101672.19;;;16.44;82.24
8575;BME280;4325;42.520;27.448;2023-04-08T07:40:29;101672.25;;;17.01;75.54
8575;BME280;4325;42.520;27.448;2023-04-08T07:42:57;101673.25;;;18.05;66.31
8575;BME280;4325;42.520;27.448;2023-04-08T07:45:24;101671.81;;;19.55;58.28
8575;BME280;4325;42.520;27.448;2023-04-08T07:47:51;101675.50;;;21.47;50.63
8575;BME280;4325;42.520;27.448;2023-04-08T07:50:18;101670.06;;;23.85;43.57
8575;BME280;4325;42.520;27.448;2023-04-08T07:52:44;101673.31;;;25.11;38.54
8575;BME280;4325;42.520;27.448;2023-04-08T07:55:11;101670.88;;;26.31;35.54
8575;BME280;4325;42.520;27.448;2023-04-08T07:57:38;101666.88;;;26.32;34.55
8575;BME280;4325;42.520;27.448;2023-04-08T08:00:08;101669.03;;;25.98;34.62
8575;BME280;4325;42.520;27.448;2023-04-08T08:02:35;101675.78;;;27.79;32.65
8575;BME280;4325;42.520;27.448;2023-04-08T08:05:01;101682.44;;;29.40;30.03
8575;BME280;4325;42.520;27.448;2023-04-08T08:07:28;101677.13;;;30.69;27.54
8575;BME280;4325;42.520;27.448;2023-04-08T08:09:55;101688.09;;;29.89;27.92
8575;BME280;4325;42.520;27.448;2023-04-08T08:12:22;101685.19;;;29.59;27.55
8575;BME280;4325;42.520;27.448;2023-04-08T08:14:49;101684.50;;;29.43;28.15
8575;BME280;4325;42.520;27.448;2023-04-08T08:17:20;101684.13;;;31.12;26.76
8575;BME280;4325;42.520;27.448;2023-04-08T08:19:47;101687.78;;;29.94;26.56
8575;BME280;4325;42.520;27.448;2023-04-08T08:22:14;101681.50;;;28.91;28.74
8575;BME280;4325;42.520;27.448;2023-04-08T08:24:41;101680.91;;;28.62;28.97
8575;BME280;4325;42.520;27.448;2023-04-08T08:27:09;101684.22;;;29.97;28.21
8575;BME280;4325;42.520;27.448;2023-04-08T08:29:36;101688.00;;;29.82;27.42
8575;BME280;4325;42.520;27.448;2023-04-08T08:32:03;101692.28;;;29.98;27.57
8575;BME280;4325;42.520;27.448;2023-04-08T08:34:31;101684.91;;;32.01;26.11
8575;BME280;4325;42.520;27.448;2023-04-08T08:36:59;101684.25;;;34.03;23.52
8575;BME280;4325;42.520;27.448;2023-04-08T08:39:25;101675.78;;;31.70;24.60
8575;BME280;4325;42.520;27.448;2023-04-08T08:41:52;101671.81;;;32.43;24.74
8575;BME280;4325;42.520;27.448;2023-04-08T08:44:20;101681.78;;;32.16;24.57
8575;BME280;4325;42.520;27.448;2023-04-08T08:46:47;101674.75;;;31.45;25.02
8575;BME280;4325;42.520;27.448;2023-04-08T08:49:14;101667.25;;;32.21;24.16
8575;BME280;4325;42.520;27.448;2023-04-08T08:51:44;101670.44;;;33.13;23.81
8575;BME280;4325;42.520;27.448;2023-04-08T08:54:12;101671.56;;;32.84;24.11
8575;BME280;4325;42.520;27.448;2023-04-08T08:56:40;101674.81;;;32.86;23.01
8575;BME280;4325;42.520;27.448;2023-04-08T08:59:08;101660.06;;;32.45;23.64
8575;BME280;4325;42.520;27.448;2023-04-08T09:01:35;101678.53;;;32.14;24.61
8575;BME280;4325;42.520;27.448;2023-04-08T09:04:11;101670.06;;;33.29;23.36
8575;BME280;4325;42.520;27.448;2023-04-08T09:06:38;101680.56;;;34.20;22.84
8575;BME280;4325;42.520;27.448;2023-04-08T09:09:07;101668.53;;;34.88;21.61
8575;BME280;4325;42.520;27.448;2023-04-08T09:11:36;101666.06;;;32.29;23.86
8575;BME280;4325;42.520;27.448;2023-04-08T09:14:04;101667.47;;;32.74;24.04
8575;BME280;4325;42.520;27.448;2023-04-08T09:16:31;101666.72;;;34.36;22.73
8575;BME280;4325;42.520;27.448;2023-04-08T09:19:08;101660.31;;;36.37;21.02
8575;BME280;4325;42.520;27.448;2023-04-08T09:21:36;101662.41;;;37.24;19.68
8575;BME280;4325;42.520;27.448;2023-04-08T09:24:07;101662.81;;;35.54;21.42
8575;BME280;4325;42.520;27.448;2023-04-08T09:26:35;101663.47;;;34.37;21.64
8575;BME280;4325;42.520;27.448;2023-04-08T09:29:04;101656.28;;;33.31;22.37
8575;BME280;4325;42.520;27.448;2023-04-08T09:31:32;101655.28;;;32.56;23.83
8575;BME280;4325;42.520;27.448;2023-04-08T09:34:08;101647.28;;;33.00;24.14
8575;BME280;4325;42.520;27.448;2023-04-08T09:36:35;101660.31;;;33.08;23.40
8575;BME280;4325;42.520;27.448;2023-04-08T09:39:03;101644.59;;;32.28;24.24
8575;BME280;4325;42.520;27.448;2023-04-08T09:41:33;101644.81;;;32.78;23.52
8575;BME280;4325;42.520;27.448;2023-04-08T09:44:02;101647.19;;;31.39;24.75
8575;BME280;4325;42.520;27.448;2023-04-08T09:46:35;101645.25;;;32.01;24.58
8575;BME280;4325;42.520;27.448;2023-04-08T09:49:05;101647.78;;;33.73;22.96
8575;BME280;4325;42.520;27.448;2023-04-08T09:51:37;101637.94;;;32.86;23.15
8575;BME280;4325;42.520;27.448;2023-04-08T09:54:11;101640.03;;;33.13;23.21
8575;BME280;4325;42.520;27.448;2023-04-08T09:56:43;101640.06;;;33.66;22.94
8575;BME280;4325;42.520;27.448;2023-04-08T09:59:14;101639.53;;;35.11;21.92
8575;BME280;4325;42.520;27.448;2023-04-08T10:01:46;101657.94;;;34.92;21.09
8575;BME280;4325;42.520;27.448;2023-04-08T10:04:15;101646.94;;;34.94;20.97
8575;BME280;4325;42.520;27.448;2023-04-08T10:06:50;101656.22;;;35.64;21.35
8575;BME280;4325;42.520;27.448;2023-04-08T10:09:19;101650.84;;;35.22;20.94
8575;BME280;4325;42.520;27.448;2023-04-08T10:11:48;101642.44;;;35.04;20.96
8575;BME280;4325;42.520;27.448;2023-04-08T10:14:15;101652.91;;;34.38;21.72
8575;BME280;4325;42.520;27.448;2023-04-08T10:16:43;101653.59;;;34.70;21.63
8575;BME280;4325;42.520;27.448;2023-04-08T10:19:36;101651.16;;;34.72;20.86
8575;BME280;4325;42.520;27.448;2023-04-08T10:25:29;101637.19;;;32.06;23.42
8575;BME280;4325;42.520;27.448;2023-04-08T10:27:58;101642.16;;;32.27;23.65
8575;BME280;4325;42.520;27.448;2023-04-08T10:30:44;101643.69;;;33.35;22.50
8575;BME280;4325;42.520;27.448;2023-04-08T10:33:12;101639.00;;;35.27;21.37
8575;BME280;4325;42.520;27.448;2023-04-08T10:35:41;101643.91;;;36.49;20.17
8575;BME280;4325;42.520;27.448;2023-04-08T10:38:11;101634.28;;;36.35;20.13
8575;BME280;4325;42.520;27.448;2023-04-08T10:40:39;101633.19;;;36.56;19.75
8575;BME280;4325;42.520;27.448;2023-04-08T10:43:09;101620.84;;;36.66;20.39
8575;BME280;4325;42.520;27.448;2023-04-08T10:45:36;101633.94;;;38.10;19.13
8575;BME280;4325;42.520;27.448;2023-04-08T10:48:16;101636.44;;;38.08;18.47
8575;BME280;4325;42.520;27.448;2023-04-08T10:50:50;101629.53;;;36.86;19.43
8575;BME280;4325;42.520;27.448;2023-04-08T10:53:23;101620.34;;;36.71;19.72
8575;BME280;4325;42.520;27.448;2023-04-08T10:55:51;101627.41;;;36.29;20.25
8575;BME280;4325;42.520;27.448;2023-04-08T10:58:19;101609.84;;;35.60;19.85
8575;BME280;4325;42.520;27.448;2023-04-08T11:00:46;101628.44;;;34.65;20.86
8575;BME280;4325;42.520;27.448;2023-04-08T11:03:13;101619.59;;;34.38;21.24
8575;BME280;4325;42.520;27.448;2023-04-08T11:05:41;101621.31;;;34.01;21.42
8575;BME280;4325;42.520;27.448;2023-04-08T11:08:08;101622.09;;;32.64;22.30
8575;BME280;4325;42.520;27.448;2023-04-08T11:10:38;101621.28;;;31.37;23.88
8575;BME280;4325;42.520;27.448;2023-04-08T11:13:06;101617.66;;;31.94;23.55
8575;BME280;4325;42.520;27.448;2023-04-08T11:15:35;101631.16;;;33.22;22.38
8575;BME280;4325;42.520;27.448;2023-04-08T11:18:03;101605.34;;;34.42;20.85
8575;BME280;4325;42.520;27.448;2023-04-08T11:20:31;101602.44;;;34.52;20.93
8575;BME280;4325;42.520;27.448;2023-04-08T11:23:00;101613.28;;;33.04;21.57
8575;BME280;4325;42.520;27.448;2023-04-08T11:25:28;101605.97;;;33.13;21.59
8575;BME280;4325;42.520;27.448;2023-04-08T11:27:55;101601.06;;;33.95;21.02
8575;BME280;4325;42.520;27.448;2023-04-08T11:30:23;101602.25;;;34.91;20.00
8575;BME280;4325;42.520;27.448;2023-04-08T11:32:52;101590.16;;;36.13;19.07
8575;BME280;4325;42.520;27.448;2023-04-08T11:35:20;101593.28;;;37.56;17.94
8575;BME280;4325;42.520;27.448;2023-04-08T11:37:47;101597.72;;;37.84;17.83
8575;BME280;4325;42.520;27.448;2023-04-08T11:40:19;101585.38;;;37.17;18.23
8575;BME280;4325;42.520;27.448;2023-04-08T11:42:46;101588.22;;;36.03;18.95
8575;BME280;4325;42.520;27.448;2023-04-08T11:45:15;101591.88;;;35.66;19.10
8575;BME280;4325;42.520;27.448;2023-04-08T11:47:43;101585.63;;;33.85;20.41
8575;BME280;4325;42.520;27.448;2023-04-08T11:50:11;101588.13;;;33.69;20.87
8575;BME280;4325;42.520;27.448;2023-04-08T11:52:43;101586.44;;;34.07;21.08
8575;BME280;4325;42.520;27.448;2023-04-08T11:55:11;101584.00;;;33.92;20.55
8575;BME280;4325;42.520;27.448;2023-04-08T11:57:38;101588.91;;;33.80;21.05
8575;BME280;4325;42.520;27.448;2023-04-08T12:00:06;101575.13;;;33.68;21.40
8575;BME280;4325;42.520;27.448;2023-04-08T12:02:34;101574.69;;;32.68;21.86
8575;BME280;4325;42.520;27.448;2023-04-08T12:05:00;101567.69;;;32.40;22.46
8575;BME280;4325;42.520;27.448;2023-04-08T12:07:29;101578.72;;;30.45;24.28
8575;BME280;4325;42.520;27.448;2023-04-08T12:09:56;101561.06;;;29.36;25.95
8575;BME280;4325;42.520;27.448;2023-04-08T12:12:24;101566.72;;;30.22;25.20
8575;BME280;4325;42.520;27.448;2023-04-08T12:14:51;101574.53;;;30.02;25.72
8575;BME280;4325;42.520;27.448;2023-04-08T12:17:18;101564.00;;;28.75;26.33
8575;BME280;4325;42.520;27.448;2023-04-08T12:19:44;101552.03;;;27.17;28.44
8575;BME280;4325;42.520;27.448;2023-04-08T12:22:11;101562.59;;;28.05;28.33
8575;BME280;4325;42.520;27.448;2023-04-08T12:24:40;101557.41;;;28.07;27.71
8575;BME280;4325;42.520;27.448;2023-04-08T12:27:06;101550.50;;;26.88;29.23
8575;BME280;4325;42.520;27.448;2023-04-08T12:29:33;101552.41;;;27.15;29.46
8575;BME280;4325;42.520;27.448;2023-04-08T12:32:00;101550.25;;;27.09;29.10
8575;BME280;4325;42.520;27.448;2023-04-08T12:34:28;101546.38;;;25.99;30.55
8575;BME280;4325;42.520;27.448;2023-04-08T12:36:55;101540.75;;;25.59;31.21
8575;BME280;4325;42.520;27.448;2023-04-08T12:39:23;101544.16;;;25.28;31.45
8575;BME280;4325;42.520;27.448;2023-04-08T12:41:51;101544.59;;;24.82;31.74
8575;BME280;4325;42.520;27.448;2023-04-08T12:44:18;101545.53;;;24.98;32.53
8575;BME280;4325;42.520;27.448;2023-04-08T12:46:45;101542.56;;;25.79;30.76
8575;BME280;4325;42.520;27.448;2023-04-08T12:49:12;101541.16;;;24.76;32.42
8575;BME280;4325;42.520;27.448;2023-04-08T12:51:38;101550.47;;;23.61;33.94
8575;BME280;4325;42.520;27.448;2023-04-08T12:54:06;101543.44;;;22.08;35.10
8575;BME280;4325;42.520;27.448;2023-04-08T12:56:33;101539.00;;;21.08;37.47
8575;BME280;4325;42.520;27.448;2023-04-08T12:59:01;101541.28;;;19.77;40.25
8575;BME280;4325;42.520;27.448;2023-04-08T13:01:28;101537.47;;;18.97;42.62
8575;BME280;4325;42.520;27.448;2023-04-08T13:03:55;101536.69;;;18.51;45.33
8575;BME280;4325;42.520;27.448;2023-04-08T13:06:22;101522.47;;;18.06;47.02
8575;BME280;4325;42.520;27.448;2023-04-08T13:08:49;101525.66;;;17.81;49.25